sensor_id;sensor_type;location;lat;lon;timestamp;temperature;humidity
21883;DHT22;11106;47.864;13.054;2022-08-19T00:03:20;19.70;99.90
21883;DHT22;11106;47.864;13.054;2022-08-19T00:08:20;19.60;99.90
21883;DHT22;11106;47.864;13.054;2022-08-19T00:13:21;19.60;99.90
21883;DHT22;11106;47.864;13.054;2022-08-19T00:18:22;19.60;99.90
21883;DHT22;11106;47.864;13.054;2022-08-19T00:23:22;19.60;99.90
21883;DHT22;11106;47.864;13.054;2022-08-19T00:28:23;19.70;99.90
21883;DHT22;11106;47.864;13.054;2022-08-19T00:33:24;19.60;99.90
21883;DHT22;11106;47.864;13.054;2022-08-19T00:38:25;19.60;99.90
21883;DHT22;11106;47.864;13.054;2022-08-19T00:43:28;19.60;99.90
21883;DHT22;11106;47.864;13.054;2022-08-19T00:48:28;19.50;99.90
21883;DHT22;11106;47.864;13.054;2022-08-19T00:53:31;19.50;99.90
21883;DHT22;11106;47.864;13.054;2022-08-19T00:58:33;19.50;99.90
21883;DHT22;11106;47.864;13.054;2022-08-19T01:03:35;19.50;99.90
21883;DHT22;11106;47.864;13.054;2022-08-19T01:08:35;19.50;99.90
21883;DHT22;11106;47.864;13.054;2022-08-19T01:13:36;19.40;99.90
21883;DHT22;11106;47.864;13.054;2022-08-19T01:18:40;19.40;99.90
21883;DHT22;11106;47.864;13.054;2022-08-19T01:23:42;19.30;99.90
21883;DHT22;11106;47.864;13.054;2022-08-19T01:28:45;19.30;99.90
21883;DHT22;11106;47.864;13.054;2022-08-19T01:33:47;19.40;99.90
21883;DHT22;11106;47.864;13.054;2022-08-19T01:38:49;19.40;99.90
21883;DHT22;11106;47.864;13.054;2022-08-19T01:43:52;19.40;99.90
21883;DHT22;11106;47.864;13.054;2022-08-19T01:48:53;19.40;99.90
21883;DHT22;11106;47.864;13.054;2022-08-19T01:53:54;19.40;99.90
21883;DHT22;11106;47.864;13.054;2022-08-19T01:59:03;19.40;99.90
21883;DHT22;11106;47.864;13.054;2022-08-19T02:04:05;19.30;99.90
21883;DHT22;11106;47.864;13.054;2022-08-19T02:09:06;19.30;99.90
21883;DHT22;11106;47.864;13.054;2022-08-19T02:14:09;19.30;99.90
21883;DHT22;11106;47.864;13.054;2022-08-19T02:19:09;19.30;99.90
21883;DHT22;11106;47.864;13.054;2022-08-19T02:24:10;19.20;99.90
21883;DHT22;11106;47.864;13.054;2022-08-19T02:29:12;19.20;99.90
21883;DHT22;11106;47.864;13.054;2022-08-19T02:34:13;19.20;99.90
21883;DHT22;11106;47.864;13.054;2022-08-19T02:39:13;19.20;99.90
21883;DHT22;11106;47.864;13.054;2022-08-19T02:44:14;19.20;99.90
21883;DHT22;11106;47.864;13.054;2022-08-19T02:49:15;19.20;99.90
21883;DHT22;11106;47.864;13.054;2022-08-19T02:54:16;19.30;99.90
21883;DHT22;11106;47.864;13.054;2022-08-19T02:59:17;19.30;99.90
21883;DHT22;11106;47.864;13.054;2022-08-19T03:04:18;19.30;99.90
21883;DHT22;11106;47.864;13.054;2022-08-19T03:09:20;19.30;99.90
21883;DHT22;11106;47.864;13.054;2022-08-19T03:14:21;19.30;99.90
21883;DHT22;11106;47.864;13.054;2022-08-19T03:19:23;19.30;99.90
21883;DHT22;11106;47.864;13.054;2022-08-19T03:24:24;19.30;99.90
21883;DHT22;11106;47.864;13.054;2022-08-19T03:29:29;19.30;99.90
21883;DHT22;11106;47.864;13.054;2022-08-19T03:34:33;19.30;99.90
21883;DHT22;11106;47.864;13.054;2022-08-19T03:39:37;19.20;99.90
21883;DHT22;11106;47.864;13.054;2022-08-19T03:44:38;19.20;99.90
21883;DHT22;11106;47.864;13.054;2022-08-19T03:49:39;19.30;99.90
21883;DHT22;11106;47.864;13.054;2022-08-19T03:54:40;19.30;99.90
21883;DHT22;11106;47.864;13.054;2022-08-19T03:59:40;19.40;99.90
21883;DHT22;11106;47.864;13.054;2022-08-19T04:04:43;19.30;99.90
21883;DHT22;11106;47.864;13.054;2022-08-19T04:09:43;19.30;99.90
21883;DHT22;11106;47.864;13.054;2022-08-19T04:14:44;19.30;99.90
21883;DHT22;11106;47.864;13.054;2022-08-19T04:19:45;19.30;99.90
21883;DHT22;11106;47.864;13.054;2022-08-19T04:24:46;19.30;99.90
21883;DHT22;11106;47.864;13.054;2022-08-19T04:29:46;19.30;99.90
21883;DHT22;11106;47.864;13.054;2022-08-19T04:34:48;19.30;99.90
21883;DHT22;11106;47.864;13.054;2022-08-19T04:39:49;19.30;99.90
21883;DHT22;11106;47.864;13.054;2022-08-19T04:45:12;19.30;99.90
21883;DHT22;11106;47.864;13.054;2022-08-19T04:50:13;19.20;99.90
21883;DHT22;11106;47.864;13.054;2022-08-19T04:55:14;19.20;99.90
21883;DHT22;11106;47.864;13.054;2022-08-19T05:00:15;19.20;99.90
21883;DHT22;11106;47.864;13.054;2022-08-19T05:05:16;19.20;99.90
21883;DHT22;11106;47.864;13.054;2022-08-19T05:10:17;19.10;99.90
21883;DHT22;11106;47.864;13.054;2022-08-19T05:15:18;19.20;99.90
21883;DHT22;11106;47.864;13.054;2022-08-19T05:20:19;19.10;99.90
21883;DHT22;11106;47.864;13.054;2022-08-19T05:25:40;19.20;99.90
21883;DHT22;11106;47.864;13.054;2022-08-19T05:30:41;19.30;99.90
21883;DHT22;11106;47.864;13.054;2022-08-19T05:35:44;19.30;99.90
21883;DHT22;11106;47.864;13.054;2022-08-19T05:40:44;19.40;99.90
21883;DHT22;11106;47.864;13.054;2022-08-19T05:45:47;19.40;99.90
21883;DHT22;11106;47.864;13.054;2022-08-19T05:50:48;19.40;99.90
21883;DHT22;11106;47.864;13.054;2022-08-19T05:55:50;19.30;99.90
21883;DHT22;11106;47.864;13.054;2022-08-19T06:00:51;19.20;99.90
21883;DHT22;11106;47.864;13.054;2022-08-19T06:05:53;19.60;99.90
21883;DHT22;11106;47.864;13.054;2022-08-19T06:10:55;20.00;99.90
21883;DHT22;11106;47.864;13.054;2022-08-19T06:15:55;20.40;99.90
21883;DHT22;11106;47.864;13.054;2022-08-19T06:20:56;20.10;99.90
21883;DHT22;11106;47.864;13.054;2022-08-19T06:25:57;20.40;99.90
21883;DHT22;11106;47.864;13.054;2022-08-19T06:30:58;20.60;99.90
21883;DHT22;11106;47.864;13.054;2022-08-19T06:35:58;20.60;99.90
21883;DHT22;11106;47.864;13.054;2022-08-19T06:41:03;20.30;99.90
21883;DHT22;11106;47.864;13.054;2022-08-19T06:46:10;20.40;99.90
21883;DHT22;11106;47.864;13.054;2022-08-19T06:51:16;20.10;99.90
21883;DHT22;11106;47.864;13.054;2022-08-19T06:56:21;20.00;99.90
21883;DHT22;11106;47.864;13.054;2022-08-19T07:01:22;19.90;99.90
21883;DHT22;11106;47.864;13.054;2022-08-19T07:06:23;20.10;99.90
21883;DHT22;11106;47.864;13.054;2022-08-19T07:11:24;20.10;99.90
21883;DHT22;11106;47.864;13.054;2022-08-19T07:16:25;20.20;99.90
21883;DHT22;11106;47.864;13.054;2022-08-19T07:21:28;20.30;99.90
21883;DHT22;11106;47.864;13.054;2022-08-19T07:26:32;20.40;99.90
21883;DHT22;11106;47.864;13.054;2022-08-19T07:31:33;20.50;99.90
21883;DHT22;11106;47.864;13.054;2022-08-19T07:36:39;20.70;99.90
21883;DHT22;11106;47.864;13.054;2022-08-19T07:41:41;20.70;99.90
21883;DHT22;11106;47.864;13.054;2022-08-19T07:46:45;20.80;99.90
21883;DHT22;11106;47.864;13.054;2022-08-19T07:51:59;20.80;99.90
21883;DHT22;11106;47.864;13.054;2022-08-19T07:57:02;20.90;99.90
21883;DHT22;11106;47.864;13.054;2022-08-19T08:02:03;20.80;99.90
21883;DHT22;11106;47.864;13.054;2022-08-19T08:07:06;20.80;99.90
21883;DHT22;11106;47.864;13.054;2022-08-19T08:12:29;20.90;99.90
21883;DHT22;11106;47.864;13.054;2022-08-19T08:17:31;20.90;99.90
21883;DHT22;11106;47.864;13.054;2022-08-19T08:22:32;21.00;99.90
21883;DHT22;11106;47.864;13.054;2022-08-19T08:27:52;21.10;99.90
21883;DHT22;11106;47.864;13.054;2022-08-19T08:32:53;21.20;99.90
21883;DHT22;11106;47.864;13.054;2022-08-19T08:37:55;21.30;99.90
21883;DHT22;11106;47.864;13.054;2022-08-19T08:48:20;21.60;99.90
21883;DHT22;11106;47.864;13.054;2022-08-19T08:53:21;22.00;99.90
21883;DHT22;11106;47.864;13.054;2022-08-19T08:58:41;22.30;99.90
21883;DHT22;11106;47.864;13.054;2022-08-19T09:09:16;23.00;99.90
21883;DHT22;11106;47.864;13.054;2022-08-19T09:19:34;24.50;99.90
21883;DHT22;11106;47.864;13.054;2022-08-19T09:24:34;24.40;99.90
21883;DHT22;11106;47.864;13.054;2022-08-19T09:29:37;24.30;99.90
21883;DHT22;11106;47.864;13.054;2022-08-19T09:34:38;24.10;99.90
21883;DHT22;11106;47.864;13.054;2022-08-19T09:39:40;23.80;99.90
21883;DHT22;11106;47.864;13.054;2022-08-19T09:44:42;23.50;99.90
21883;DHT22;11106;47.864;13.054;2022-08-19T09:49:43;23.60;99.90
21883;DHT22;11106;47.864;13.054;2022-08-19T09:54:43;23.80;99.90
21883;DHT22;11106;47.864;13.054;2022-08-19T09:59:44;24.00;99.90
21883;DHT22;11106;47.864;13.054;2022-08-19T10:04:45;24.20;99.90
21883;DHT22;11106;47.864;13.054;2022-08-19T10:10:06;24.20;99.90
21883;DHT22;11106;47.864;13.054;2022-08-19T10:15:07;24.30;99.90
21883;DHT22;11106;47.864;13.054;2022-08-19T10:20:08;24.40;99.90
21883;DHT22;11106;47.864;13.054;2022-08-19T10:25:09;24.20;99.90
21883;DHT22;11106;47.864;13.054;2022-08-19T10:30:11;24.20;99.90
21883;DHT22;11106;47.864;13.054;2022-08-19T10:35:13;24.30;99.90
21883;DHT22;11106;47.864;13.054;2022-08-19T10:40:14;24.50;99.90
21883;DHT22;11106;47.864;13.054;2022-08-19T10:45:15;24.70;99.90
21883;DHT22;11106;47.864;13.054;2022-08-19T10:50:17;24.80;99.90
21883;DHT22;11106;47.864;13.054;2022-08-19T10:55:36;24.80;99.90
21883;DHT22;11106;47.864;13.054;2022-08-19T11:00:58;25.00;99.90
21883;DHT22;11106;47.864;13.054;2022-08-19T11:06:08;24.80;99.90
21883;DHT22;11106;47.864;13.054;2022-08-19T11:11:09;24.80;99.90
21883;DHT22;11106;47.864;13.054;2022-08-19T11:16:17;24.80;99.90
21883;DHT22;11106;47.864;13.054;2022-08-19T11:21:25;24.80;99.90
21883;DHT22;11106;47.864;13.054;2022-08-19T11:26:28;24.90;99.90
21883;DHT22;11106;47.864;13.054;2022-08-19T11:31:32;24.90;99.90
21883;DHT22;11106;47.864;13.054;2022-08-19T11:36:34;25.00;99.90
21883;DHT22;11106;47.864;13.054;2022-08-19T11:41:37;25.20;99.90
21883;DHT22;11106;47.864;13.054;2022-08-19T11:46:38;25.30;99.90
21883;DHT22;11106;47.864;13.054;2022-08-19T11:51:40;25.40;99.90
21883;DHT22;11106;47.864;13.054;2022-08-19T11:56:44;25.60;99.90
21883;DHT22;11106;47.864;13.054;2022-08-19T12:01:46;25.70;99.90
21883;DHT22;11106;47.864;13.054;2022-08-19T12:06:47;26.10;99.90
21883;DHT22;11106;47.864;13.054;2022-08-19T12:11:48;25.80;99.90
21883;DHT22;11106;47.864;13.054;2022-08-19T12:16:48;26.00;99.60
21883;DHT22;11106;47.864;13.054;2022-08-19T12:21:51;26.10;98.80
21883;DHT22;11106;47.864;13.054;2022-08-19T12:26:53;26.30;99.90
21883;DHT22;11106;47.864;13.054;2022-08-19T12:31:57;26.50;99.60
21883;DHT22;11106;47.864;13.054;2022-08-19T12:37:04;26.60;98.80
21883;DHT22;11106;47.864;13.054;2022-08-19T12:42:05;26.40;98.40
21883;DHT22;11106;47.864;13.054;2022-08-19T12:47:09;26.40;98.50
21883;DHT22;11106;47.864;13.054;2022-08-19T12:52:11;26.30;98.00
21883;DHT22;11106;47.864;13.054;2022-08-19T12:57:15;26.40;97.20
21883;DHT22;11106;47.864;13.054;2022-08-19T13:02:16;26.40;98.20
21883;DHT22;11106;47.864;13.054;2022-08-19T13:07:17;26.30;97.40
21883;DHT22;11106;47.864;13.054;2022-08-19T13:12:17;25.50;98.60
21883;DHT22;11106;47.864;13.054;2022-08-19T13:17:19;25.60;99.30
21883;DHT22;11106;47.864;13.054;2022-08-19T13:22:20;25.50;99.30
21883;DHT22;11106;47.864;13.054;2022-08-19T13:27:21;25.70;99.50
21883;DHT22;11106;47.864;13.054;2022-08-19T13:32:21;25.20;99.30
21883;DHT22;11106;47.864;13.054;2022-08-19T13:37:41;25.20;98.90
21883;DHT22;11106;47.864;13.054;2022-08-19T13:42:43;25.30;99.90
21883;DHT22;11106;47.864;13.054;2022-08-19T13:47:52;25.20;99.40
21883;DHT22;11106;47.864;13.054;2022-08-19T13:52:54;25.40;99.90
21883;DHT22;11106;47.864;13.054;2022-08-19T13:57:58;25.40;98.90
21883;DHT22;11106;47.864;13.054;2022-08-19T14:03:00;25.00;99.80
21883;DHT22;11106;47.864;13.054;2022-08-19T14:08:01;24.90;99.90
21883;DHT22;11106;47.864;13.054;2022-08-19T14:13:03;25.10;99.90
21883;DHT22;11106;47.864;13.054;2022-08-19T14:18:04;24.90;99.90
21883;DHT22;11106;47.864;13.054;2022-08-19T14:23:05;25.10;99.90
21883;DHT22;11106;47.864;13.054;2022-08-19T14:28:06;25.10;99.90
21883;DHT22;11106;47.864;13.054;2022-08-19T14:33:08;25.10;99.90
21883;DHT22;11106;47.864;13.054;2022-08-19T14:38:15;24.50;99.90
21883;DHT22;11106;47.864;13.054;2022-08-19T14:43:16;24.10;99.90
21883;DHT22;11106;47.864;13.054;2022-08-19T14:48:18;24.30;99.90
21883;DHT22;11106;47.864;13.054;2022-08-19T14:53:19;24.00;99.90
21883;DHT22;11106;47.864;13.054;2022-08-19T14:58:20;24.00;99.90
21883;DHT22;11106;47.864;13.054;2022-08-19T15:03:21;23.50;99.90
21883;DHT22;11106;47.864;13.054;2022-08-19T15:08:21;23.30;99.90
21883;DHT22;11106;47.864;13.054;2022-08-19T15:13:26;23.10;99.90
21883;DHT22;11106;47.864;13.054;2022-08-19T15:18:27;23.20;99.90
21883;DHT22;11106;47.864;13.054;2022-08-19T15:23:28;23.00;99.90
21883;DHT22;11106;47.864;13.054;2022-08-19T15:28:29;23.00;99.90
21883;DHT22;11106;47.864;13.054;2022-08-19T15:33:35;23.10;99.90
21883;DHT22;11106;47.864;13.054;2022-08-19T15:38:40;23.20;99.90
21883;DHT22;11106;47.864;13.054;2022-08-19T15:43:42;23.10;99.90
21883;DHT22;11106;47.864;13.054;2022-08-19T15:48:44;23.10;99.90
21883;DHT22;11106;47.864;13.054;2022-08-19T15:53:45;23.20;99.90
21883;DHT22;11106;47.864;13.054;2022-08-19T15:58:46;23.20;99.90
21883;DHT22;11106;47.864;13.054;2022-08-19T16:04:05;23.00;99.90
21883;DHT22;11106;47.864;13.054;2022-08-19T16:09:27;22.90;99.90
21883;DHT22;11106;47.864;13.054;2022-08-19T16:14:30;22.80;99.90
21883;DHT22;11106;47.864;13.054;2022-08-19T16:19:32;22.70;99.90
21883;DHT22;11106;47.864;13.054;2022-08-19T16:24:32;22.40;99.90
21883;DHT22;11106;47.864;13.054;2022-08-19T16:29:34;22.40;99.90
21883;DHT22;11106;47.864;13.054;2022-08-19T16:34:37;22.30;99.90
21883;DHT22;11106;47.864;13.054;2022-08-19T16:39:38;22.30;99.90
21883;DHT22;11106;47.864;13.054;2022-08-19T16:44:43;22.10;99.90
21883;DHT22;11106;47.864;13.054;2022-08-19T16:49:44;22.00;99.90
21883;DHT22;11106;47.864;13.054;2022-08-19T16:54:46;21.90;99.90
21883;DHT22;11106;47.864;13.054;2022-08-19T16:59:47;21.90;99.90
21883;DHT22;11106;47.864;13.054;2022-08-19T17:04:49;21.80;99.90
21883;DHT22;11106;47.864;13.054;2022-08-19T17:09:50;21.60;99.90
21883;DHT22;11106;47.864;13.054;2022-08-19T17:14:51;21.50;99.90
21883;DHT22;11106;47.864;13.054;2022-08-19T17:19:52;21.50;99.90
21883;DHT22;11106;47.864;13.054;2022-08-19T17:24:53;21.40;99.90
21883;DHT22;11106;47.864;13.054;2022-08-19T17:29:54;21.30;99.90
21883;DHT22;11106;47.864;13.054;2022-08-19T17:34:54;21.10;99.90
21883;DHT22;11106;47.864;13.054;2022-08-19T17:39:55;21.00;99.90
21883;DHT22;11106;47.864;13.054;2022-08-19T17:44:56;21.00;99.90
21883;DHT22;11106;47.864;13.054;2022-08-19T17:49:58;20.80;99.90
21883;DHT22;11106;47.864;13.054;2022-08-19T17:55:00;20.80;99.90
21883;DHT22;11106;47.864;13.054;2022-08-19T18:00:01;20.60;99.90
21883;DHT22;11106;47.864;13.054;2022-08-19T18:05:03;20.50;99.90
21883;DHT22;11106;47.864;13.054;2022-08-19T18:10:04;20.50;99.90
21883;DHT22;11106;47.864;13.054;2022-08-19T18:15:06;20.40;99.90
21883;DHT22;11106;47.864;13.054;2022-08-19T18:20:09;20.40;99.90
21883;DHT22;11106;47.864;13.054;2022-08-19T18:25:18;20.30;99.90
21883;DHT22;11106;47.864;13.054;2022-08-19T18:30:22;20.30;99.90
21883;DHT22;11106;47.864;13.054;2022-08-19T18:35:25;20.20;99.90
21883;DHT22;11106;47.864;13.054;2022-08-19T18:40:29;20.10;99.90
21883;DHT22;11106;47.864;13.054;2022-08-19T18:45:49;19.90;99.90
21883;DHT22;11106;47.864;13.054;2022-08-19T18:51:09;19.90;99.90
21883;DHT22;11106;47.864;13.054;2022-08-19T18:56:12;19.70;99.90
21883;DHT22;11106;47.864;13.054;2022-08-19T19:01:20;19.70;99.90
21883;DHT22;11106;47.864;13.054;2022-08-19T19:06:25;19.60;99.90
21883;DHT22;11106;47.864;13.054;2022-08-19T19:11:30;19.60;99.90
21883;DHT22;11106;47.864;13.054;2022-08-19T19:16:32;19.50;99.90
21883;DHT22;11106;47.864;13.054;2022-08-19T19:21:33;19.50;99.90
21883;DHT22;11106;47.864;13.054;2022-08-19T19:26:34;19.50;99.90
21883;DHT22;11106;47.864;13.054;2022-08-19T19:31:36;19.50;99.90
21883;DHT22;11106;47.864;13.054;2022-08-19T19:36:38;19.50;99.90
21883;DHT22;11106;47.864;13.054;2022-08-19T19:41:39;19.50;99.90
21883;DHT22;11106;47.864;13.054;2022-08-19T19:46:40;19.40;99.90
21883;DHT22;11106;47.864;13.054;2022-08-19T19:51:44;19.40;99.90
21883;DHT22;11106;47.864;13.054;2022-08-19T19:56:45;19.40;99.90
21883;DHT22;11106;47.864;13.054;2022-08-19T20:01:47;19.40;99.90
21883;DHT22;11106;47.864;13.054;2022-08-19T20:06:49;19.40;99.90
21883;DHT22;11106;47.864;13.054;2022-08-19T20:11:53;19.40;99.90
21883;DHT22;11106;47.864;13.054;2022-08-19T20:16:55;19.40;99.90
21883;DHT22;11106;47.864;13.054;2022-08-19T20:21:56;19.30;99.90
21883;DHT22;11106;47.864;13.054;2022-08-19T20:26:58;19.40;99.90
21883;DHT22;11106;47.864;13.054;2022-08-19T20:31:59;19.40;99.90
21883;DHT22;11106;47.864;13.054;2022-08-19T20:37:00;19.40;99.90
21883;DHT22;11106;47.864;13.054;2022-08-19T20:42:02;19.40;99.90
21883;DHT22;11106;47.864;13.054;2022-08-19T20:47:03;19.40;99.90
21883;DHT22;11106;47.864;13.054;2022-08-19T20:52:05;19.30;99.90
21883;DHT22;11106;47.864;13.054;2022-08-19T20:57:06;19.30;99.90
21883;DHT22;11106;47.864;13.054;2022-08-19T21:02:06;19.30;99.90
21883;DHT22;11106;47.864;13.054;2022-08-19T21:07:07;19.20;99.90
21883;DHT22;11106;47.864;13.054;2022-08-19T21:12:11;19.20;99.90
21883;DHT22;11106;47.864;13.054;2022-08-19T21:17:12;19.20;99.90
21883;DHT22;11106;47.864;13.054;2022-08-19T21:22:13;19.20;99.90
21883;DHT22;11106;47.864;13.054;2022-08-19T21:27:14;19.20;99.90
21883;DHT22;11106;47.864;13.054;2022-08-19T21:32:15;19.20;99.90
21883;DHT22;11106;47.864;13.054;2022-08-19T21:37:16;19.20;99.90
21883;DHT22;11106;47.864;13.054;2022-08-19T21:42:17;19.20;99.90
21883;DHT22;11106;47.864;13.054;2022-08-19T21:47:18;19.20;99.90
21883;DHT22;11106;47.864;13.054;2022-08-19T21:52:25;19.20;99.90
21883;DHT22;11106;47.864;13.054;2022-08-19T21:57:27;19.20;99.90
21883;DHT22;11106;47.864;13.054;2022-08-19T22:02:28;19.20;99.90
21883;DHT22;11106;47.864;13.054;2022-08-19T22:07:30;19.20;99.90
21883;DHT22;11106;47.864;13.054;2022-08-19T22:12:33;19.20;99.90
21883;DHT22;11106;47.864;13.054;2022-08-19T22:17:35;19.10;99.90
21883;DHT22;11106;47.864;13.054;2022-08-19T22:22:37;18.90;99.90
21883;DHT22;11106;47.864;13.054;2022-08-19T22:27:39;18.90;99.90
21883;DHT22;11106;47.864;13.054;2022-08-19T22:32:45;18.80;99.90
21883;DHT22;11106;47.864;13.054;2022-08-19T22:37:46;18.50;99.90
21883;DHT22;11106;47.864;13.054;2022-08-19T22:42:47;18.40;99.90
21883;DHT22;11106;47.864;13.054;2022-08-19T22:47:48;18.20;99.90
21883;DHT22;11106;47.864;13.054;2022-08-19T22:52:57;18.00;99.90
21883;DHT22;11106;47.864;13.054;2022-08-19T22:57:58;17.80;99.90
21883;DHT22;11106;47.864;13.054;2022-08-19T23:02:59;17.70;99.90
21883;DHT22;11106;47.864;13.054;2022-08-19T23:08:01;17.60;99.90
21883;DHT22;11106;47.864;13.054;2022-08-19T23:13:02;17.50;99.90
21883;DHT22;11106;47.864;13.054;2022-08-19T23:18:03;17.40;99.90
21883;DHT22;11106;47.864;13.054;2022-08-19T23:23:08;17.40;99.90
21883;DHT22;11106;47.864;13.054;2022-08-19T23:28:10;17.40;99.90
21883;DHT22;11106;47.864;13.054;2022-08-19T23:33:32;17.40;99.90
21883;DHT22;11106;47.864;13.054;2022-08-19T23:38:34;17.30;99.90
21883;DHT22;11106;47.864;13.054;2022-08-19T23:43:36;17.40;99.90
21883;DHT22;11106;47.864;13.054;2022-08-19T23:48:39;17.40;99.90
21883;DHT22;11106;47.864;13.054;2022-08-19T23:53:40;17.30;99.90
21883;DHT22;11106;47.864;13.054;2022-08-19T23:58:42;17.40;99.90
